Time;durP1;ratioP1;P1;durP2;ratioP2;P2;SDS_P1;SDS_P2;PMS_P1;PMS_P2;Temp;Humidity;BMP_temperature;BMP_pressure;BME280_temperature;BME280_humidity;BME280_pressure;Samples;Min_cycle;Max_cycle;Signal;HPM_P1;HPM_P2
2022/09/26 00:01:05;;;;;;;8.93;5.30;;;;;;;13.41;100.00;99736.31;5049088;28;20037;-68
2022/09/26 00:03:31;;;;;;;10.18;5.38;;;;;;;13.38;100.00;99731.97;5063934;28;20053;-68
2022/09/26 00:06:04;;;;;;;10.68;5.28;;;;;;;13.31;100.00;99727.84;5087598;28;20024;-68
2022/09/26 00:08:30;;;;;;;;;;;;;;;13.35;100.00;99739.28;5090047;28;20032;-68
2022/09/26 00:11:01;;;;;;;9.88;5.20;;;;;;;13.32;100.00;99731.41;5081482;28;19958;-68
2022/09/26 00:13:28;;;;;;;9.02;4.80;;;;;;;13.27;100.00;99738.78;5057289;28;20232;-68
2022/09/26 00:15:54;;;;;;;10.77;4.90;;;;;;;13.25;100.00;99725.50;5072504;28;20032;-67
2022/09/26 00:18:21;;;;;;;10.65;5.05;;;;;;;13.20;100.00;99728.41;5073180;28;20055;-68
2022/09/26 00:20:46;;;;;;;11.35;4.18;;;;;;;13.15;100.00;99724.19;5072829;28;20040;-67
2022/09/26 00:23:12;;;;;;;9.80;5.70;;;;;;;13.11;100.00;99719.97;5073586;28;20024;-68
2022/09/26 00:25:49;;;;;;;8.82;4.50;;;;;;;13.10;100.00;99716.41;5072795;28;20036;-68
2022/09/26 00:28:16;;;;;;;11.02;4.82;;;;;;;13.06;100.00;99709.47;5073190;28;20028;-68
2022/09/26 00:30:43;;;;;;;10.45;4.97;;;;;;;13.05;100.00;99715.75;5072970;28;20403;-68
2022/09/26 00:33:09;;;;;;;13.13;4.97;;;;;;;13.03;100.00;99706.97;5073410;28;20020;-68
2022/09/26 00:35:35;;;;;;;9.23;4.55;;;;;;;13.00;100.00;99704.41;5072594;28;20025;-68
2022/09/26 00:38:00;;;;;;;9.82;5.00;;;;;;;12.97;100.00;99704.56;5072959;28;20031;-68
2022/09/26 00:40:26;;;;;;;10.32;4.70;;;;;;;12.91;100.00;99704.84;5073619;28;20031;-68
2022/09/26 00:42:56;;;;;;;9.32;4.57;;;;;;;12.85;100.00;99705.13;5072393;28;20021;-68
2022/09/26 00:45:25;;;;;;;9.80;5.47;;;;;;;12.83;100.00;99706.16;5053687;28;20025;-68
2022/09/26 00:48:01;;;;;;;10.43;4.68;;;;;;;12.78;100.00;99698.31;5051089;28;20017;-68
2022/09/26 00:50:39;;;;;;;8.98;4.95;;;;;;;12.75;100.00;99701.16;5060755;28;20490;-68
2022/09/26 00:53:10;;;;;;;8.98;4.75;;;;;;;12.71;100.00;99691.56;5071146;28;20418;-67
2022/09/26 00:55:42;;;;;;;10.55;5.53;;;;;;;12.69;100.00;99698.78;5070789;28;20020;-68
2022/09/26 00:58:13;;;;;;;11.23;5.78;;;;;;;12.73;100.00;99695.03;5054185;28;20025;-68
2022/09/26 01:00:41;;;;;;;9.55;4.70;;;;;;;12.75;100.00;99693.13;5052896;28;20395;-68
2022/09/26 01:03:06;;;;;;;9.13;4.80;;;;;;;12.75;100.00;99695.81;5059624;28;20024;-68
2022/09/26 01:05:35;;;;;;;10.82;5.25;;;;;;;12.78;100.00;99693.00;5092615;28;20785;-68
2022/09/26 01:08:01;;;;;;;11.05;5.38;;;;;;;12.82;100.00;99699.94;5062511;28;20032;-68
2022/09/26 01:10:28;;;;;;;7.93;4.72;;;;;;;12.78;100.00;99686.81;5050950;28;20020;-68
2022/09/26 01:12:56;;;;;;;8.20;4.32;;;;;;;12.83;100.00;99698.97;5051884;28;20056;-68
2022/09/26 01:15:22;;;;;;;8.90;4.70;;;;;;;12.81;100.00;99690.19;5069271;28;20028;-68
2022/09/26 01:17:49;;;;;;;9.90;4.13;;;;;;;12.81;100.00;99687.53;5071989;28;20373;-68
2022/09/26 01:20:43;;;;;;;10.23;4.97;;;;;;;12.80;100.00;99691.13;5072238;28;20032;-68
2022/09/26 01:23:18;;;;;;;14.75;6.22;;;;;;;12.80;100.00;99688.44;5071556;28;20079;-68
2022/09/26 01:26:14;;;;;;;13.25;6.30;;;;;;;12.79;100.00;99685.84;5071693;28;20079;-68
2022/09/26 01:29:07;;;;;;;10.43;4.45;;;;;;;12.74;100.00;99675.41;5072074;28;20514;-68
2022/09/26 01:32:47;;;;;;;13.18;5.93;;;;;;;12.72;100.00;99682.59;5071874;28;20103;-68
2022/09/26 01:35:05;;;;;;;10.15;5.28;;;;;;;12.72;100.00;99671.94;5071861;28;20028;-68
2022/09/26 01:37:47;;;;;;;11.60;6.63;;;;;;;12.77;100.00;99669.91;5071326;28;20040;-69
2022/09/26 01:40:20;;;;;;;9.88;5.13;;;;;;;12.78;100.00;99676.97;5072005;28;20032;-68
2022/09/26 01:43:01;;;;;;;10.90;5.45;;;;;;;12.77;100.00;99667.25;5071739;28;20476;-69
2022/09/26 01:45:39;;;;;;;11.93;5.82;;;;;;;12.78;100.00;99670.78;5071251;28;20028;-68
2022/09/26 01:48:12;;;;;;;12.07;5.55;;;;;;;12.77;100.00;99659.25;5070092;28;20031;-68
2022/09/26 01:50:49;;;;;;;11.45;5.55;;;;;;;12.81;100.00;99671.53;5071933;28;20102;-68
2022/09/26 01:53:21;;;;;;;12.32;5.43;;;;;;;12.84;100.00;99671.38;5071315;28;20045;-67
2022/09/26 01:56:13;;;;;;;15.68;6.70;;;;;;;12.83;100.00;99674.97;5071115;28;20024;-68
2022/09/26 01:58:49;;;;;;;14.85;6.53;;;;;;;12.83;100.00;99669.63;5071072;28;20043;-68
2022/09/26 02:01:18;;;;;;;14.27;6.90;;;;;;;12.85;100.00;99669.56;5071380;28;20073;-68
2022/09/26 02:04:08;;;;;;;12.45;6.25;;;;;;;12.81;100.00;99666.19;5080269;28;20024;-68
2022/09/26 02:06:41;;;;;;;11.10;5.72;;;;;;;12.76;100.00;99661.97;5091270;28;20101;-68
2022/09/26 02:09:12;;;;;;;11.60;5.77;;;;;;;12.82;100.00;99661.69;5068274;28;20028;-67
2022/09/26 02:11:40;;;;;;;11.35;6.13;;;;;;;12.78;100.00;99647.63;5051065;28;20275;-68
2022/09/26 02:14:11;;;;;;;13.90;6.03;;;;;;;12.83;100.00;99645.59;5058169;28;20043;-68
2022/09/26 02:16:38;;;;;;;13.60;6.35;;;;;;;12.83;100.00;99636.75;5072821;28;20064;-70
2022/09/26 02:19:14;;;;;;;13.35;5.80;;;;;;;12.83;100.00;99648.25;5082022;28;20009;-70
2022/09/26 02:21:42;;;;;;;13.52;6.53;;;;;;;12.84;100.00;99638.47;5081167;28;20020;-67
2022/09/26 02:24:07;;;;;;;14.77;7.15;;;;;;;12.85;100.00;99638.38;5071176;28;20056;-67
2022/09/26 02:26:33;;;;;;;12.15;6.05;;;;;;;12.84;100.00;99639.34;5070685;28;20132;-65
2022/09/26 02:28:59;;;;;;;15.13;7.00;;;;;;;12.84;100.00;99631.34;5070776;28;20521;-65
2022/09/26 02:31:29;;;;;;;13.45;6.88;;;;;;;12.84;100.00;99631.34;5070642;28;20395;-66
2022/09/26 02:33:55;;;;;;;13.70;6.82;;;;;;;12.82;100.00;99625.19;5069707;28;20029;-65
2022/09/26 02:36:22;;;;;;;18.27;8.25;;;;;;;12.84;100.00;99626.00;5070349;28;20027;-65
2022/09/26 02:38:47;;;;;;;19.00;7.18;;;;;;;12.77;100.00;99608.53;5070894;28;20028;-67
2022/09/26 02:41:32;;;;;;;14.40;6.80;;;;;;;12.87;100.00;99628.50;5068977;28;20086;-67
2022/09/26 02:44:29;;;;;;;11.35;5.45;;;;;;;12.84;100.00;99617.09;5064560;28;20021;-68
2022/09/26 02:47:12;;;;;;;14.98;5.90;;;;;;;12.78;100.00;99596.91;5049641;28;20040;-67
2022/09/26 02:49:44;;;;;;;13.95;7.28;;;;;;;12.84;100.00;99596.63;5050592;28;20112;-68
2022/09/26 02:52:28;;;;;;;12.27;6.90;;;;;;;12.83;100.00;99594.88;5050771;28;20080;-67
2022/09/26 02:55:07;;;;;;;;;;;;;;;12.80;100.00;99596.88;5057200;28;20040;-68
2022/09/26 02:57:57;;;;;;;12.00;6.80;;;;;;;12.78;100.00;99586.22;5069630;28;19912;-68
2022/09/26 03:00:27;;;;;;;11.02;6.68;;;;;;;12.76;100.00;99582.78;5064452;28;20079;-68
2022/09/26 03:03:03;;;;;;;16.25;6.93;;;;;;;12.77;100.00;99583.63;5053973;28;20021;-68
2022/09/26 03:05:31;;;;;;;13.57;6.55;;;;;;;12.72;100.00;99577.66;5090143;28;20026;-68
2022/09/26 03:08:03;;;;;;;12.95;5.95;;;;;;;12.72;100.00;99586.53;5087009;28;20024;-68
2022/09/26 03:10:31;;;;;;;12.80;7.32;;;;;;;12.68;100.00;99584.97;5050169;28;20579;-69
2022/09/26 03:13:09;;;;;;;11.45;6.85;;;;;;;12.42;100.00;99545.31;5047937;28;20443;-68
2022/09/26 03:15:37;;;;;;;12.48;6.30;;;;;;;12.48;100.00;99565.50;5065304;28;20107;-68
2022/09/26 03:18:09;;;;;;;11.77;5.80;;;;;;;12.52;100.00;99577.78;5067818;28;20035;-69
2022/09/26 03:20:35;;;;;;;11.88;6.45;;;;;;;12.53;100.00;99576.81;5067920;28;20107;-69
2022/09/26 03:23:02;;;;;;;9.82;5.32;;;;;;;12.45;100.00;99561.19;5069110;28;20588;-68
2022/09/26 03:25:27;;;;;;;14.00;7.50;;;;;;;12.58;100.00;99567.66;5069390;28;20017;-69
2022/09/26 03:27:53;;;;;;;11.10;5.85;;;;;;;12.60;100.00;99560.44;5068037;28;20028;-68
2022/09/26 03:30:20;;;;;;;11.15;6.07;;;;;;;12.63;100.00;99560.31;5069160;28;20021;-68
2022/09/26 03:32:46;;;;;;;22.40;7.80;;;;;;;12.64;100.00;99559.38;5067878;28;20029;-68
2022/09/26 03:35:12;;;;;;;11.85;6.78;;;;;;;12.61;100.00;99551.50;5066487;28;20331;-67
2022/09/26 03:37:38;;;;;;;13.25;6.65;;;;;;;12.62;100.00;99558.56;5067750;28;20016;-68
2022/09/26 03:40:05;;;;;;;10.35;6.07;;;;;;;12.59;100.00;99548.03;5066377;28;20028;-68
2022/09/26 03:42:33;;;;;;;13.32;6.30;;;;;;;12.59;100.00;99542.72;5067940;28;20414;-67
2022/09/26 03:45:00;;;;;;;12.07;6.10;;;;;;;12.49;100.00;99546.75;5067846;28;20154;-67
2022/09/26 03:47:25;;;;;;;11.77;7.03;;;;;;;12.44;100.00;99542.56;5067453;28;20020;-67
2022/09/26 03:49:51;;;;;;;12.48;6.15;;;;;;;12.48;100.00;99536.16;5068487;28;20035;-68
2022/09/26 03:52:17;;;;;;;12.60;6.40;;;;;;;12.48;100.00;99531.69;5067762;28;20519;-67
2022/09/26 03:54:42;;;;;;;12.48;6.95;;;;;;;12.49;100.00;99528.09;5065238;28;20094;-67
2022/09/26 03:57:11;;;;;;;17.23;8.30;;;;;;;12.45;100.00;99528.31;5067937;28;20049;-67
2022/09/26 03:59:37;;;;;;;29.83;10.02;;;;;;;12.45;100.00;99520.31;5067946;28;20418;-67
2022/09/26 04:02:02;;;;;;;14.82;6.95;;;;;;;12.40;100.00;99517.00;5067701;28;20114;-68
2022/09/26 04:04:28;;;;;;;16.50;6.97;;;;;;;12.44;100.00;99515.88;5082941;28;20028;-67
2022/09/26 04:06:53;;;;;;;18.73;6.97;;;;;;;12.35;100.00;99501.22;5087736;28;20107;-67
2022/09/26 04:09:19;;;;;;;15.90;6.60;;;;;;;12.40;100.00;99520.53;5089592;28;20363;-68
2022/09/26 04:11:45;;;;;;;13.23;6.75;;;;;;;12.32;100.00;99497.84;5089406;28;20046;-67
2022/09/26 04:14:10;;;;;;;11.27;6.30;;;;;;;12.29;100.00;99498.81;5073721;28;20025;-67
2022/09/26 04:16:37;;;;;;;9.55;6.20;;;;;;;12.18;100.00;99495.81;5048270;28;20549;-67
2022/09/26 04:19:02;;;;;;;10.85;6.28;;;;;;;12.12;100.00;99487.25;5049156;28;20168;-68
2022/09/26 04:21:28;;;;;;;12.00;5.50;;;;;;;12.05;100.00;99481.34;5049252;28;20104;-67
2022/09/26 04:23:54;;;;;;;12.63;5.43;;;;;;;11.96;100.00;99480.91;5064181;28;20024;-68
2022/09/26 04:26:22;;;;;;;14.68;7.32;;;;;;;11.81;100.00;99472.66;5067573;28;20430;-68
2022/09/26 04:28:50;;;;;;;12.02;6.95;;;;;;;11.82;100.00;99478.88;5067642;28;20024;-67
2022/09/26 04:31:17;;;;;;;13.45;6.68;;;;;;;11.58;100.00;99440.03;5068528;28;20043;-68
2022/09/26 04:33:44;;;;;;;10.23;6.30;;;;;;;11.72;100.00;99462.47;5068912;28;20483;-67
2022/09/26 04:36:11;;;;;;;11.15;6.22;;;;;;;11.73;100.00;99463.28;5067292;28;20387;-67
2022/09/26 04:38:38;;;;;;;9.68;5.63;;;;;;;11.66;100.00;99457.38;5069018;28;20036;-67
2022/09/26 04:41:12;;;;;;;8.95;5.97;;;;;;;11.64;100.00;99469.06;5069181;28;20055;-68
2022/09/26 04:43:38;;;;;;;11.95;6.90;;;;;;;11.57;100.00;99468.44;5065761;28;20379;-67
2022/09/26 04:46:09;;;;;;;9.95;5.72;;;;;;;11.55;100.00;99464.09;5050782;28;20029;-68
2022/09/26 04:48:35;;;;;;;13.25;5.28;;;;;;;11.51;100.00;99458.06;5068775;28;20031;-67
2022/09/26 04:51:07;;;;;;;14.40;6.72;;;;;;;11.49;100.00;99456.41;5068914;28;20135;-67
2022/09/26 04:53:33;;;;;;;11.43;6.38;;;;;;;11.51;100.00;99452.75;5068634;28;20045;-67
2022/09/26 04:55:59;;;;;;;10.38;6.32;;;;;;;11.49;100.00;99443.09;5068538;28;20041;-67
2022/09/26 04:58:25;;;;;;;11.40;6.88;;;;;;;11.55;100.00;99453.44;5071645;28;20043;-67
2022/09/26 05:00:51;;;;;;;11.13;7.07;;;;;;;11.52;100.00;99453.59;5072373;28;20024;-67
2022/09/26 05:03:17;;;;;;;13.95;7.85;;;;;;;11.51;100.00;99449.22;5073500;28;20024;-67
2022/09/26 05:05:46;;;;;;;12.32;6.78;;;;;;;11.50;100.00;99444.81;5092455;28;20501;-67
2022/09/26 05:08:11;;;;;;;15.73;8.32;;;;;;;11.47;100.00;99447.59;5088224;28;20027;-66
2022/09/26 05:10:37;;;;;;;16.92;9.30;;;;;;;11.28;100.00;99430.75;5053465;28;20391;-67
2022/09/26 05:13:03;;;;;;;16.98;7.95;;;;;;;11.33;100.00;99447.38;5051971;28;20031;-67
2022/09/26 05:15:29;;;;;;;15.43;7.85;;;;;;;11.25;100.00;99434.38;5068672;28;20056;-67
2022/09/26 05:17:58;;;;;;;12.23;7.95;;;;;;;11.26;100.00;99437.94;5072365;28;20035;-67
2022/09/26 05:20:30;;;;;;;13.05;8.05;;;;;;;11.28;100.00;99438.72;5070437;28;20082;-67
2022/09/26 05:23:00;;;;;;;13.75;8.75;;;;;;;11.39;100.00;99436.44;5072445;28;20024;-67
2022/09/26 05:28:11;;;;;;;15.90;9.27;;;;;;;11.52;100.00;99440.28;5072158;28;20024;-67
2022/09/26 05:30:37;;;;;;;21.88;9.15;;;;;;;11.46;100.00;99422.81;5071629;28;20033;-67
2022/09/26 05:33:03;;;;;;;16.50;7.90;;;;;;;11.55;100.00;99437.47;5071985;28;20534;-67
2022/09/26 05:35:32;;;;;;;16.35;7.68;;;;;;;11.59;100.00;99441.72;5071494;28;20483;-67
2022/09/26 05:37:59;;;;;;;13.77;6.93;;;;;;;11.61;100.00;99450.53;5071662;28;20099;-67
2022/09/26 05:43:09;;;;;;;16.60;7.95;;;;;;;11.66;100.00;99440.56;5071972;28;20046;-67
2022/09/26 05:45:35;;;;;;;14.77;7.40;;;;;;;11.72;100.00;99434.94;5071146;28;20501;-67
2022/09/26 05:48:00;;;;;;;16.45;6.57;;;;;;;11.85;100.00;99436.09;5070292;28;20037;-67
2022/09/26 05:50:26;;;;;;;13.68;7.05;;;;;;;11.93;100.00;99429.47;5071486;28;20027;-67
2022/09/26 05:52:56;;;;;;;11.85;7.15;;;;;;;11.97;100.00;99430.19;5071595;28;20036;-67
2022/09/26 05:55:23;;;;;;;14.32;6.75;;;;;;;12.02;100.00;99438.84;5071473;28;20034;-67
2022/09/26 05:57:59;;;;;;;16.13;7.32;;;;;;;12.10;100.00;99433.13;5071570;28;20017;-68
2022/09/26 06:00:26;;;;;;;15.90;6.97;;;;;;;12.15;100.00;99426.66;5069844;28;20028;-67
2022/09/26 06:02:56;;;;;;;13.45;6.03;;;;;;;12.19;100.00;99430.88;5072767;28;20020;-68
2022/09/26 06:05:25;;;;;;;15.02;7.35;;;;;;;12.24;100.00;99431.50;5091509;28;20024;-68
2022/09/26 06:07:51;;;;;;;15.02;7.40;;;;;;;12.31;100.00;99435.63;5084544;28;20392;-67
2022/09/26 06:10:18;;;;;;;12.10;7.32;;;;;;;12.36;100.00;99419.38;5051123;28;20507;-68
2022/09/26 06:12:43;;;;;;;13.88;8.50;;;;;;;12.48;100.00;99434.78;5049797;28;20056;-68
2022/09/26 06:15:09;;;;;;;15.38;7.70;;;;;;;12.91;100.00;99432.56;5066995;28;20074;-68
2022/09/26 06:17:35;;;;;;;21.70;9.88;;;;;;;13.90;100.00;99433.50;5070357;28;20032;-67
2022/09/26 06:20:01;;;;;;;19.17;8.75;;;;;;;14.46;100.00;99434.72;5070340;28;20060;-67
2022/09/26 06:22:27;;;;;;;18.83;10.25;;;;;;;15.51;100.00;99418.59;5069678;28;20479;-68
2022/09/26 06:24:53;;;;;;;16.60;8.10;;;;;;;16.89;100.00;99419.34;5069384;28;20372;-69
2022/09/26 06:27:19;;;;;;;14.68;7.53;;;;;;;17.34;96.50;99381.25;5068984;28;20029;-68
2022/09/26 06:29:44;;;;;;;11.48;6.40;;;;;;;16.82;89.29;99399.22;5069492;28;20024;-68
2022/09/26 06:32:10;;;;;;;11.63;7.03;;;;;;;16.02;88.84;99407.25;5069176;28;20530;-68
2022/09/26 06:34:35;;;;;;;16.50;8.43;;;;;;;15.58;90.70;99417.28;5069374;28;20089;-68
2022/09/26 06:37:00;;;;;;;26.95;16.92;;;;;;;15.50;93.98;99420.41;5070320;28;20051;-68
2022/09/26 06:39:34;;;;;;;23.98;17.45;;;;;;;17.12;95.51;99405.22;5070721;28;20055;-68
2022/09/26 06:41:59;;;;;;;;;;;;;;;19.28;84.44;99404.41;5071231;28;20475;-68
2022/09/26 06:44:25;;;;;;;16.25;12.15;;;;;;;20.80;70.62;99391.09;5060425;28;19915;-68
2022/09/26 06:46:50;;;;;;;13.02;10.18;;;;;;;20.95;67.49;99387.94;5048213;28;20020;-67
2022/09/26 06:49:15;;;;;;;24.13;14.60;;;;;;;21.83;63.05;99383.00;5049163;28;20635;-67
2022/09/26 06:51:41;;;;;;;19.02;11.63;;;;;;;22.74;58.69;99384.56;5055388;28;20028;-67
2022/09/26 06:54:06;;;;;;;15.27;10.02;;;;;;;23.35;55.54;99386.00;5067328;28;20127;-67
2022/09/26 06:56:32;;;;;;;9.30;6.80;;;;;;;24.25;52.43;99397.19;5068333;28;20029;-67
2022/09/26 06:58:57;;;;;;;10.40;6.85;;;;;;;25.15;49.37;99390.69;5067656;28;20060;-68
2022/09/26 07:01:22;;;;;;;8.88;5.35;;;;;;;25.62;47.40;99386.66;5069769;28;20180;-67
2022/09/26 07:03:48;;;;;;;8.30;5.18;;;;;;;25.98;46.56;99381.09;5065513;28;20433;-67
2022/09/26 07:06:13;;;;;;;6.38;3.65;;;;;;;26.41;45.04;99379.09;5069898;28;20127;-68
2022/09/26 07:08:39;;;;;;;7.72;3.97;;;;;;;26.75;44.48;99387.25;5070477;28;20028;-68
2022/09/26 07:11:05;;;;;;;6.35;3.70;;;;;;;26.23;44.32;99378.34;5069879;28;20039;-67
2022/09/26 07:13:30;;;;;;;5.40;3.10;;;;;;;24.96;47.14;99379.94;5070062;28;20031;-67
2022/09/26 07:15:57;;;;;;;8.35;3.38;;;;;;;23.99;51.08;99382.53;5068934;28;20024;-67
2022/09/26 07:18:23;;;;;;;7.80;3.05;;;;;;;24.50;50.86;99375.53;5070208;28;20104;-67
2022/09/26 07:20:48;;;;;;;5.50;3.10;;;;;;;25.08;48.60;99381.44;5069355;28;20439;-67
2022/09/26 07:23:15;;;;;;;6.28;3.70;;;;;;;25.12;48.25;99381.97;5070230;28;20028;-67
2022/09/26 07:25:44;;;;;;;6.35;3.50;;;;;;;23.23;51.38;99376.28;5069608;28;20022;-67
2022/09/26 07:28:09;;;;;;;4.80;3.03;;;;;;;21.85;57.21;99373.75;5070048;28;20025;-67
2022/09/26 07:30:35;;;;;;;5.88;3.00;;;;;;;20.59;61.21;99364.00;5069429;28;20040;-66
2022/09/26 07:33:02;;;;;;;4.95;2.92;;;;;;;20.06;68.61;99377.50;5069791;28;20029;-66
2022/09/26 07:35:32;;;;;;;10.02;3.50;;;;;;;21.52;66.09;99365.00;5069157;28;20016;-67
2022/09/26 07:37:58;;;;;;;7.00;3.22;;;;;;;21.95;62.01;99373.78;5069857;28;20041;-67
2022/09/26 07:40:24;;;;;;;4.43;2.63;;;;;;;23.33;57.82;99360.88;5069614;28;20036;-67
2022/09/26 07:42:51;;;;;;;6.78;3.20;;;;;;;23.94;55.58;99365.78;5069662;28;20599;-66
2022/09/26 07:50:10;;;;;;;6.05;3.22;;;;;;;24.23;53.55;99355.69;5069097;28;20100;-66
2022/09/26 07:50:55;;;;;;;7.88;3.42;;;;;;;23.44;55.74;99346.28;5069506;28;20035;-66
2022/09/26 07:53:21;;;;;;;4.72;2.75;;;;;;;23.23;55.57;99338.28;5069112;28;20037;-66
2022/09/26 07:56:04;;;;;;;6.30;3.55;;;;;;;23.43;56.21;99353.56;5068947;28;20016;-66
2022/09/26 07:58:30;;;;;;;7.38;3.53;;;;;;;22.94;57.19;99347.44;5069424;28;20179;-66
2022/09/26 08:00:56;;;;;;;4.47;2.72;;;;;;;22.36;59.06;99343.81;5069164;28;20033;-66
2022/09/26 08:03:22;;;;;;;8.25;3.13;;;;;;;21.44;62.83;99346.75;5075179;28;20028;-66
2022/09/26 08:05:48;;;;;;;5.53;3.10;;;;;;;20.60;66.74;99348.66;5089002;28;20081;-66
2022/09/26 08:08:14;;;;;;;6.57;3.03;;;;;;;20.03;69.92;99338.09;5089571;28;20020;-66
2022/09/26 08:10:41;;;;;;;6.63;2.97;;;;;;;19.06;73.20;99346.91;5089844;28;20036;-65
2022/09/26 08:13:07;;;;;;;6.35;3.28;;;;;;;18.38;77.79;99330.56;5089434;28;20028;-65
2022/09/26 08:15:32;;;;;;;5.93;3.30;;;;;;;18.98;78.22;99335.81;5056809;28;20031;-65
2022/09/26 08:17:57;;;;;;;6.05;3.00;;;;;;;19.76;76.13;99329.56;5051594;28;20107;-65
2022/09/26 08:20:23;;;;;;;4.75;2.72;;;;;;;20.40;72.50;99320.63;5047918;28;20132;-65
2022/09/26 08:22:48;;;;;;;6.75;3.00;;;;;;;21.22;68.20;99309.03;5047747;28;20039;-65
2022/09/26 08:25:14;;;;;;;6.20;2.80;;;;;;;21.63;65.81;99321.63;5047657;28;20440;-66
2022/09/26 08:27:42;;;;;;;3.70;2.25;;;;;;;22.05;63.39;99315.09;5047656;28;20029;-65
2022/09/26 08:30:09;;;;;;;6.95;2.70;;;;;;;22.54;63.37;99312.34;5047709;28;20465;-65
2022/09/26 08:32:36;;;;;;;4.47;2.60;;;;;;;22.91;62.63;99305.22;5066717;28;20111;-66
2022/09/26 08:35:01;;;;;;;4.72;2.40;;;;;;;23.19;59.08;99319.72;5072141;28;20099;-66
2022/09/26 08:37:28;;;;;;;4.63;2.20;;;;;;;22.86;57.51;99296.66;5072592;28;20024;-65
2022/09/26 08:39:53;;;;;;;5.00;2.10;;;;;;;22.73;59.98;99306.94;5072995;28;20361;-65
2022/09/26 08:43:03;;;;;;;5.57;1.95;;;;;;;21.67;62.38;99310.38;5072950;28;20031;-65
2022/09/26 08:48:39;;;;;;;4.20;2.10;;;;;;;20.47;67.53;99293.94;5053123;28;20095;-65
2022/09/26 08:51:37;;;;;;;3.40;1.88;;;;;;;19.74;69.06;99298.25;5052479;28;20120;-65
2022/09/26 08:54:17;;;;;;;3.60;1.95;;;;;;;20.25;71.73;99294.88;5053543;28;20056;-65
2022/09/26 08:56:56;;;;;;;5.72;2.03;;;;;;;21.37;68.22;99290.56;5052355;28;20479;-65
2022/09/26 08:59:28;;;;;;;3.63;1.95;;;;;;;21.51;65.27;99293.81;5054973;28;20032;-64
2022/09/26 09:01:58;;;;;;;4.03;2.10;;;;;;;21.47;63.59;99302.31;5052228;28;20024;-64
2022/09/26 09:04:48;;;;;;;3.53;2.00;;;;;;;21.57;61.26;99292.38;5081384;28;20482;-65
2022/09/26 09:07:21;;;;;;;4.30;2.15;;;;;;;21.66;60.67;99289.72;5086430;28;20073;-64
2022/09/26 09:09:48;;;;;;;4.13;1.85;;;;;;;21.05;62.30;99292.56;5070489;28;20420;-64
2022/09/26 09:12:53;;;;;;;5.85;2.05;;;;;;;21.44;63.70;99287.22;5072084;28;20028;-64
2022/09/26 09:15:32;;;;;;;3.75;2.22;;;;;;;21.72;61.63;99285.59;5071960;28;20103;-64
2022/09/26 09:18:31;;;;;;;4.15;1.88;;;;;;;20.98;62.89;99273.28;5071811;28;20060;-64
2022/09/26 09:21:07;;;;;;;6.78;2.08;;;;;;;20.79;66.01;99278.53;5072005;28;20028;-64
2022/09/26 09:24:00;;;;;;;3.10;1.63;;;;;;;20.57;65.72;99274.13;5072200;28;20081;-64
2022/09/26 09:26:29;;;;;;;3.63;2.10;;;;;;;20.39;66.57;99275.69;5071572;28;20356;-64
2022/09/26 09:29:32;;;;;;;4.47;2.05;;;;;;;20.30;67.05;99276.44;5072057;28;20497;-64
2022/09/26 09:32:00;;;;;;;6.88;1.88;;;;;;;20.08;64.75;99271.06;5069753;28;20536;-64
2022/09/26 09:34:38;;;;;;;4.15;2.10;;;;;;;20.13;67.41;99276.13;5069735;28;20040;-64
2022/09/26 09:37:14;;;;;;;4.25;1.83;;;;;;;20.51;65.93;99258.41;5068356;28;20598;-64
2022/09/26 09:39:43;;;;;;;5.32;1.92;;;;;;;20.55;63.08;99268.00;5069965;28;20043;-64
2022/09/26 09:42:17;;;;;;;6.70;1.90;;;;;;;20.11;64.96;99257.34;5070620;28;20031;-64
2022/09/26 09:44:58;;;;;;;3.22;1.80;;;;;;;20.01;65.95;99263.63;5070159;28;20023;-64
2022/09/26 09:47:27;;;;;;;6.32;2.00;;;;;;;20.10;64.79;99258.31;5071259;28;20056;-64
2022/09/26 09:49:53;;;;;;;4.47;1.80;;;;;;;19.88;64.76;99247.59;5071508;28;20074;-64
2022/09/26 09:52:37;;;;;;;4.47;2.60;;;;;;;19.61;64.64;99247.16;5071340;28;20048;-64
2022/09/26 09:55:32;;;;;;;3.58;1.70;;;;;;;19.45;65.65;99233.19;5071278;28;20485;-64
2022/09/26 09:58:17;;;;;;;4.90;1.75;;;;;;;19.27;66.25;99240.03;5071661;28;20032;-64
2022/09/26 10:00:56;;;;;;;2.70;1.45;;;;;;;18.93;65.90;99230.25;5072289;28;20035;-64
2022/09/26 10:03:28;;;;;;;5.28;1.80;;;;;;;18.79;67.90;99217.84;5077287;28;20024;-64
2022/09/26 10:06:13;;;;;;;4.85;1.90;;;;;;;18.85;70.01;99221.88;5091508;28;20020;-64
2022/09/26 10:08:42;;;;;;;3.38;1.67;;;;;;;19.06;68.15;99220.19;5091440;28;20440;-64
2022/09/26 10:11:25;;;;;;;8.55;2.50;;;;;;;19.06;68.62;99223.72;5065285;28;20036;-66
2022/09/26 10:13:55;;;;;;;4.53;2.08;;;;;;;19.79;68.37;99213.25;5055032;28;20092;-65
2022/09/26 10:16:22;;;;;;;4.10;1.98;;;;;;;21.07;61.59;99198.63;5070705;28;20312;-66
2022/09/26 10:18:51;;;;;;;3.88;2.30;;;;;;;21.80;59.98;99215.41;5071321;28;20025;-66
2022/09/26 10:21:17;;;;;;;3.13;1.48;;;;;;;22.33;55.50;99189.66;5071321;28;20107;-66
2022/09/26 10:23:49;;;;;;;4.82;2.10;;;;;;;22.45;52.78;99190.34;5069535;28;20032;-66
2022/09/26 10:26:21;;;;;;;5.70;1.95;;;;;;;22.33;54.58;99195.06;5070889;28;20016;-65
2022/09/26 10:28:56;;;;;;;4.38;1.73;;;;;;;21.97;55.69;99198.47;5069166;28;20435;-66
2022/09/26 10:31:30;;;;;;;4.47;1.90;;;;;;;21.04;58.36;99207.03;5069631;28;20028;-65
2022/09/26 10:34:00;;;;;;;5.93;2.25;;;;;;;20.03;60.31;99196.88;5069721;28;20025;-65
2022/09/26 10:36:37;;;;;;;4.22;2.55;;;;;;;19.31;64.80;99160.63;5069022;28;20438;-65
2022/09/26 10:41:58;;;;;;;3.65;2.05;;;;;;;19.49;68.14;99180.69;5070543;28;20422;-67
2022/09/26 10:44:26;;;;;;;4.72;2.25;;;;;;;19.54;67.15;99183.88;5060893;28;20025;-65
2022/09/26 10:46:56;;;;;;;3.58;1.90;;;;;;;19.35;67.25;99180.97;5050141;28;20115;-66
2022/09/26 10:49:30;;;;;;;4.32;2.08;;;;;;;19.21;67.06;99181.19;5050669;28;20029;-65
2022/09/26 10:52:18;;;;;;;3.05;2.00;;;;;;;19.25;67.50;99171.88;5069626;28;20025;-64
2022/09/26 10:54:56;;;;;;;5.90;2.10;;;;;;;19.40;67.24;99173.38;5069276;28;20048;-65
2022/09/26 10:57:32;;;;;;;4.07;1.88;;;;;;;19.52;62.27;99164.28;5070051;28;20036;-65
2022/09/26 11:00:00;;;;;;;3.90;2.15;;;;;;;19.64;62.89;99163.25;5070243;28;20047;-64
2022/09/26 11:02:27;;;;;;;4.25;2.00;;;;;;;19.63;63.83;99153.47;5070302;28;20047;-65
2022/09/26 11:07:48;;;;;;;4.30;1.85;;;;;;;19.21;63.52;99146.13;5090183;28;20477;-64
2022/09/26 11:10:26;;;;;;;3.80;1.48;;;;;;;19.07;65.23;99159.91;5086875;28;20077;-64
2022/09/26 11:13:14;;;;;;;3.53;1.60;;;;;;;18.85;68.35;99152.69;5069378;28;20036;-64
2022/09/26 11:15:52;;;;;;;3.42;1.75;;;;;;;18.84;70.56;99155.50;5069734;28;20398;-64
2022/09/26 11:18:25;;;;;;;5.03;2.10;;;;;;;18.79;69.91;99146.91;5069932;28;20108;-65
2022/09/26 11:20:56;;;;;;;7.05;2.67;;;;;;;18.63;69.69;99136.53;5069906;28;20482;-64
2022/09/26 11:24:02;;;;;;;4.93;2.10;;;;;;;18.72;70.03;99134.91;5069846;28;20059;-64
2022/09/26 11:26:48;;;;;;;3.40;2.10;;;;;;;18.55;69.71;99146.19;5068896;28;20041;-65
2022/09/26 11:29:35;;;;;;;5.72;2.30;;;;;;;18.29;69.43;99148.16;5069776;28;20063;-65
2022/09/26 11:32:01;;;;;;;4.43;2.00;;;;;;;18.20;70.07;99149.72;5069678;28;20028;-65
2022/09/26 11:34:30;;;;;;;3.35;1.95;;;;;;;18.20;70.47;99143.50;5069242;28;20028;-65
2022/09/26 11:37:29;;;;;;;5.65;2.08;;;;;;;18.16;70.37;99142.88;5067486;28;20487;-65
2022/09/26 11:40:03;;;;;;;8.98;2.13;;;;;;;18.42;70.88;99138.19;5067333;28;20052;-64
2022/09/26 11:43:04;;;;;;;5.00;2.58;;;;;;;19.09;68.91;99128.28;5067329;28;20067;-65
2022/09/26 11:45:58;;;;;;;5.60;1.60;;;;;;;19.44;66.27;99128.97;5067350;28;20027;-65
2022/09/26 11:48:43;;;;;;;3.78;2.42;;;;;;;19.75;66.82;99122.75;5067467;28;20024;-64
2022/09/26 11:51:14;;;;;;;6.40;2.10;;;;;;;19.90;65.20;99116.03;5067371;28;20033;-64
2022/09/26 11:53:48;;;;;;;5.18;2.42;;;;;;;19.89;62.67;99119.72;5067420;28;20071;-64
2022/09/26 11:56:32;;;;;;;7.88;2.00;;;;;;;19.88;64.25;99104.53;5067108;28;20032;-63
2022/09/26 11:59:18;;;;;;;2.80;1.45;;;;;;;19.78;62.40;99109.00;5067342;28;20264;-64
2022/09/26 12:01:53;;;;;;;4.88;1.90;;;;;;;19.66;64.62;99096.53;5069139;28;20052;-64